Time;durP1;ratioP1;P1;durP2;ratioP2;P2;SDS_P1;SDS_P2;PMS_P1;PMS_P2;Temp;Humidity;BMP_temperature;BMP_pressure;BME280_temperature;BME280_humidity;BME280_pressure;Samples;Min_cycle;Max_cycle;Signal;HPM_P1;HPM_P2
2022/06/10 00:00:18;;;;;;;54.40;26.33;;;15.40;99.90;;;;;;5063872;28;20293;-67
2022/06/10 00:03:05;;;;;;;44.20;24.63;;;15.40;99.90;;;;;;5068479;28;20592;-67
2022/06/10 00:05:55;;;;;;;47.37;25.50;;;15.40;99.90;;;;;;5065393;28;20208;-67
2022/06/10 00:08:44;;;;;;;53.00;27.93;;;15.30;99.90;;;;;;5064334;28;20352;-67
2022/06/10 00:11:31;;;;;;;40.27;23.10;;;15.30;99.90;;;;;;5063841;28;20204;-67
2022/06/10 00:14:18;;;;;;;39.60;23.03;;;15.20;99.90;;;;;;5068277;28;20195;-67
2022/06/10 00:17:07;;;;;;;37.13;22.60;;;15.20;99.90;;;;;;5060101;28;20263;-67
2022/06/10 00:19:54;;;;;;;40.20;23.17;;;15.20;99.90;;;;;;5070979;28;20612;-67
2022/06/10 00:22:41;;;;;;;45.13;24.17;;;15.20;99.90;;;;;;5071183;28;20247;-67
2022/06/10 00:25:28;;;;;;;50.13;25.23;;;15.30;99.90;;;;;;5077948;28;20280;-68
2022/06/10 00:28:16;;;;;;;46.40;24.40;;;15.20;99.90;;;;;;5067403;28;20223;-67
2022/06/10 00:31:03;;;;;;;48.27;23.13;;;15.10;99.90;;;;;;5074345;28;20207;-67
2022/06/10 00:33:52;;;;;;;47.40;24.37;;;15.10;99.90;;;;;;5078334;28;20192;-67
2022/06/10 00:36:39;;;;;;;44.63;24.07;;;15.10;99.90;;;;;;5076234;28;20201;-67
2022/06/10 00:39:26;;;;;;;43.23;24.23;;;15.10;99.90;;;;;;5063755;28;20261;-67
2022/06/10 00:42:13;;;;;;;41.67;23.77;;;15.10;99.90;;;;;;5061347;28;20193;-68
2022/06/10 00:45:00;;;;;;;45.17;24.33;;;15.10;99.90;;;;;;5059299;28;20608;-67
2022/06/10 00:47:47;;;;;;;45.97;23.50;;;15.10;99.90;;;;;;5064731;28;20300;-67
2022/06/10 00:50:36;;;;;;;40.70;23.30;;;15.10;99.90;;;;;;5062576;28;20207;-67
2022/06/10 00:53:28;;;;;;;46.47;24.40;;;15.10;99.90;;;;;;5063469;28;20192;-67
2022/06/10 00:56:17;;;;;;;54.80;27.40;;;15.10;99.90;;;;;;5061284;28;20230;-67
2022/06/10 00:59:06;;;;;;;55.10;27.33;;;15.10;99.90;;;;;;5060639;28;20201;-67
2022/06/10 01:01:54;;;;;;;56.13;28.43;;;15.00;99.90;;;;;;5050504;28;20350;-67
2022/06/10 01:04:42;;;;;;;60.57;29.97;;;15.10;99.90;;;;;;5049347;28;20239;-67
2022/06/10 01:07:31;;;;;;;58.73;28.43;;;15.10;99.90;;;;;;5051530;28;20299;-67
2022/06/10 01:10:19;;;;;;;54.83;27.47;;;15.00;99.90;;;;;;5048728;28;20213;-67
2022/06/10 01:13:15;;;;;;;54.47;26.90;;;15.00;99.90;;;;;;5049246;28;20738;-67
2022/06/10 01:16:05;;;;;;;49.93;26.33;;;15.00;99.90;;;;;;5056062;28;20566;-67
2022/06/10 01:18:56;;;;;;;48.83;25.03;;;14.90;99.90;;;;;;5055248;28;20197;-68
2022/06/10 01:22:01;;;;;;;43.33;24.30;;;14.90;99.90;;;;;;5049529;28;20213;-67
2022/06/10 01:25:03;;;;;;;44.33;23.03;;;14.90;99.90;;;;;;5049284;28;20367;-67
2022/06/10 01:27:58;;;;;;;46.90;24.53;;;14.80;99.90;;;;;;5049051;28;20217;-67
2022/06/10 01:31:05;;;;;;;42.67;22.77;;;14.80;99.90;;;;;;5048193;28;20216;-67
2022/06/10 01:34:01;;;;;;;44.63;22.87;;;14.80;99.90;;;;;;5050197;28;20208;-67
2022/06/10 01:36:50;;;;;;;41.67;22.93;;;14.70;99.90;;;;;;5060542;28;20523;-67
2022/06/10 01:39:44;;;;;;;41.13;22.57;;;14.70;99.90;;;;;;5050040;28;20225;-67
2022/06/10 01:42:32;;;;;;;41.83;22.60;;;14.70;99.90;;;;;;5048826;28;20213;-67
2022/06/10 01:45:34;;;;;;;41.60;21.03;;;14.70;99.90;;;;;;5051728;28;20302;-68
2022/06/10 01:48:25;;;;;;;35.57;18.80;;;14.60;99.90;;;;;;5048297;28;20306;-67
2022/06/10 01:51:14;;;;;;;37.87;20.20;;;14.50;99.90;;;;;;5051768;28;20284;-67
2022/06/10 01:54:04;;;;;;;37.77;20.60;;;14.50;99.90;;;;;;5056362;28;20200;-68
2022/06/10 01:56:52;;;;;;;41.90;21.07;;;14.50;99.90;;;;;;5051832;28;20249;-68
2022/06/10 01:59:41;;;;;;;44.07;21.43;;;14.50;99.90;;;;;;5053527;28;20240;-68
2022/06/10 02:02:30;;;;;;;46.90;21.93;;;14.40;99.90;;;;;;5059184;28;20477;-68
2022/06/10 02:05:20;;;;;;;46.77;21.50;;;14.30;99.90;;;;;;5068426;28;20795;-68
2022/06/10 02:08:14;;;;;;;40.40;20.37;;;14.20;99.90;;;;;;5064485;28;20234;-68
2022/06/10 02:11:04;;;;;;;45.03;20.27;;;14.20;99.90;;;;;;5072926;28;20200;-68
2022/06/10 02:13:53;;;;;;;39.30;20.30;;;14.20;99.90;;;;;;5074041;28;20197;-68
2022/06/10 02:16:43;;;;;;;38.97;18.97;;;14.20;99.90;;;;;;5066505;28;20214;-68
2022/06/10 02:19:32;;;;;;;35.07;18.80;;;14.10;99.90;;;;;;5066511;28;20306;-68
2022/06/10 02:22:23;;;;;;;34.80;19.10;;;14.20;99.90;;;;;;5065279;28;20348;-68
2022/06/10 02:25:11;;;;;;;37.77;18.23;;;14.30;99.90;;;;;;5061475;28;20186;-68
2022/06/10 02:28:01;;;;;;;31.43;17.53;;;14.30;99.90;;;;;;5066948;28;20213;-67
2022/06/10 02:30:50;;;;;;;29.90;16.33;;;14.30;99.90;;;;;;5067324;28;20214;-68
2022/06/10 02:33:37;;;;;;;34.40;16.87;;;14.40;99.90;;;;;;5065435;28;20259;-68
2022/06/10 02:36:27;;;;;;;32.07;17.70;;;14.40;99.90;;;;;;5061162;28;20216;-68
2022/06/10 02:39:18;;;;;;;31.10;17.17;;;14.30;99.90;;;;;;5069329;28;20269;-68
2022/06/10 02:42:17;;;;;;;37.10;18.27;;;14.40;99.90;;;;;;5064194;28;20228;-68
2022/06/10 02:45:08;;;;;;;37.67;18.97;;;14.30;99.90;;;;;;5065145;28;20196;-68
2022/06/10 02:47:57;;;;;;;36.50;18.10;;;14.40;99.90;;;;;;5074075;28;20254;-68
2022/06/10 02:50:44;;;;;;;34.37;17.80;;;14.50;99.90;;;;;;5066941;28;20212;-68
2022/06/10 02:53:32;;;;;;;30.37;16.47;;;14.50;99.90;;;;;;5066665;28;20581;-68
2022/06/10 02:56:22;;;;;;;32.23;17.90;;;14.50;99.90;;;;;;5063931;28;20565;-67
2022/06/10 03:02:20;;;;;;;36.33;19.57;;;14.50;99.90;;;;;;5062515;28;20207;-68
2022/06/10 03:05:15;;;;;;;32.93;18.10;;;14.60;99.90;;;;;;5069016;28;20234;-68
2022/06/10 03:08:06;;;;;;;32.77;18.30;;;14.60;99.90;;;;;;5061467;28;20298;-68
2022/06/10 03:11:00;;;;;;;36.57;20.33;;;14.60;99.90;;;;;;5060427;28;20228;-68
2022/06/10 03:13:54;;;;;;;40.27;19.90;;;14.60;99.90;;;;;;5065640;28;20350;-67
2022/06/10 03:16:56;;;;;;;37.20;20.10;;;14.60;99.90;;;;;;5065257;28;20294;-67
2022/06/10 03:19:48;;;;;;;40.83;21.53;;;14.70;99.90;;;;;;5066234;28;20302;-68
2022/06/10 03:22:45;;;;;;;46.93;21.43;;;14.70;99.90;;;;;;5067108;28;20224;-68
2022/06/10 03:25:35;;;;;;;38.17;20.30;;;14.70;99.90;;;;;;5064407;28;20679;-68
2022/06/10 03:28:24;;;;;;;41.10;20.03;;;14.80;99.90;;;;;;5064207;28;20224;-68
2022/06/10 03:31:14;;;;;;;37.97;20.43;;;14.80;99.90;;;;;;5063634;28;20196;-68
2022/06/10 03:34:04;;;;;;;35.10;21.00;;;14.90;99.90;;;;;;5059839;28;20687;-68
2022/06/10 03:36:51;;;;;;;51.13;23.77;;;15.00;99.90;;;;;;5062069;28;20216;-68
2022/06/10 03:39:41;;;;;;;44.17;22.37;;;14.90;99.90;;;;;;5071765;28;20702;-68
2022/06/10 03:42:28;;;;;;;42.03;22.00;;;14.90;99.90;;;;;;5065040;28;20355;-68
2022/06/10 03:45:16;;;;;;;39.93;23.00;;;15.00;99.90;;;;;;5062051;28;20733;-68
2022/06/10 03:48:05;;;;;;;42.83;22.87;;;15.00;99.90;;;;;;5061037;28;20679;-68
2022/06/10 03:50:52;;;;;;;36.90;21.53;;;15.00;99.90;;;;;;5063168;28;20204;-68
2022/06/10 03:53:39;;;;;;;40.10;23.00;;;15.00;99.90;;;;;;5064107;28;20208;-68
2022/06/10 03:56:26;;;;;;;45.87;23.60;;;15.10;99.90;;;;;;5065986;28;20515;-68
2022/06/10 03:59:14;;;;;;;53.43;26.10;;;15.10;99.90;;;;;;5062846;28;20200;-68
2022/06/10 04:02:01;;;;;;;46.20;24.50;;;15.20;99.90;;;;;;5061253;28;20205;-68
2022/06/10 04:04:51;;;;;;;55.60;27.50;;;15.10;99.90;;;;;;5065105;28;20223;-68
2022/06/10 04:07:38;;;;;;;52.37;26.57;;;15.20;99.90;;;;;;5057886;28;20221;-68
2022/06/10 04:10:26;;;;;;;47.20;25.03;;;15.20;99.90;;;;;;5067736;28;20678;-68
2022/06/10 04:13:17;;;;;;;49.03;24.77;;;15.30;99.90;;;;;;5063073;28;20204;-68
2022/06/10 04:16:05;;;;;;;47.80;24.37;;;15.20;99.90;;;;;;5061184;28;20674;-68
2022/06/10 04:18:52;;;;;;;50.80;23.90;;;15.30;99.90;;;;;;5067164;28;20602;-68
2022/06/10 04:21:41;;;;;;;46.77;25.07;;;15.30;99.90;;;;;;5064437;28;20214;-68
2022/06/10 04:24:28;;;;;;;45.80;24.00;;;15.40;99.90;;;;;;5063843;28;20564;-68
2022/06/10 04:27:15;;;;;;;48.13;24.17;;;15.30;99.90;;;;;;5063104;28;20212;-68
2022/06/10 04:30:03;;;;;;;49.20;24.07;;;15.40;99.90;;;;;;5069677;28;21004;-68
2022/06/10 04:32:50;;;;;;;53.80;27.37;;;15.40;99.90;;;;;;5065296;28;20201;-68
2022/06/10 04:35:37;;;;;;;51.03;26.17;;;15.50;99.90;;;;;;5063335;28;20311;-68
2022/06/10 04:38:26;;;;;;;54.10;28.43;;;15.50;99.90;;;;;;5064758;28;20225;-68
2022/06/10 04:41:13;;;;;;;47.77;27.13;;;15.60;99.90;;;;;;5062568;28;20202;-68
2022/06/10 04:44:00;;;;;;;54.63;27.20;;;15.70;99.90;;;;;;5070814;28;20214;-68
2022/06/10 04:46:47;;;;;;;54.70;25.73;;;15.70;99.90;;;;;;5066191;28;20197;-68
2022/06/10 04:49:35;;;;;;;56.33;27.53;;;15.70;99.90;;;;;;5063309;28;20915;-68
2022/06/10 04:52:22;;;;;;;56.40;28.40;;;15.70;99.90;;;;;;5065753;28;20731;-68
2022/06/10 04:55:11;;;;;;;65.07;28.67;;;15.60;99.90;;;;;;5060227;28;20232;-68
2022/06/10 04:57:58;;;;;;;57.13;27.17;;;15.60;99.90;;;;;;5071022;28;20196;-68
2022/06/10 05:00:47;;;;;;;58.97;27.00;;;15.60;99.90;;;;;;5063839;28;20312;-68
2022/06/10 05:03:35;;;;;;;64.23;28.13;;;15.60;99.90;;;;;;5064700;28;20693;-68
2022/06/10 05:06:22;;;;;;;73.60;29.93;;;15.60;99.90;;;;;;5061430;28;20200;-68
2022/06/10 05:09:09;;;;;;;80.17;29.23;;;15.80;99.90;;;;;;5063596;28;20303;-68
2022/06/10 05:11:57;;;;;;;84.17;31.03;;;15.70;99.90;;;;;;5064697;28;20200;-69
2022/06/10 05:14:45;;;;;;;84.13;32.10;;;15.60;99.90;;;;;;5064414;28;20215;-68
2022/06/10 05:17:32;;;;;;;89.37;31.67;;;15.70;99.90;;;;;;5066937;28;20223;-69
2022/06/10 05:20:21;;;;;;;74.23;31.57;;;15.80;99.90;;;;;;5065201;28;20674;-68
2022/06/10 05:23:08;;;;;;;88.17;33.90;;;15.70;99.90;;;;;;5060717;28;20722;-69
2022/06/10 05:25:55;;;;;;;91.93;32.00;;;15.70;99.90;;;;;;5081286;28;20228;-69
2022/06/10 05:28:44;;;;;;;86.23;32.10;;;15.80;99.90;;;;;;5073304;28;20271;-68
2022/06/10 05:31:31;;;;;;;101.10;35.63;;;15.80;99.90;;;;;;5073656;28;20744;-68
2022/06/10 05:37:26;;;;;;;95.07;35.10;;;15.80;99.90;;;;;;5065423;28;20762;-68
2022/06/10 05:40:14;;;;;;;103.53;37.13;;;15.80;99.90;;;;;;5068249;28;20202;-69
2022/06/10 05:43:01;;;;;;;104.93;36.83;;;15.90;99.90;;;;;;5063217;28;20204;-69
2022/06/10 05:45:49;;;;;;;115.07;38.60;;;15.80;99.90;;;;;;5066776;28;20219;-69
2022/06/10 05:48:36;;;;;;;101.27;37.07;;;15.90;99.90;;;;;;5063012;28;20219;-69
2022/06/10 05:51:23;;;;;;;102.60;39.07;;;15.90;99.90;;;;;;5064746;28;20242;-69
2022/06/10 05:54:10;;;;;;;87.27;38.07;;;15.90;99.90;;;;;;5066077;28;20343;-69
2022/06/10 05:56:57;;;;;;;82.67;35.90;;;16.00;99.90;;;;;;5068673;28;20611;-69
2022/06/10 05:59:47;;;;;;;72.77;32.30;;;16.00;99.90;;;;;;5066151;28;20238;-69
2022/06/10 06:02:35;;;;;;;72.60;31.97;;;16.00;99.90;;;;;;5068401;28;20301;-69
2022/06/10 06:05:23;;;;;;;70.07;31.90;;;16.10;99.90;;;;;;5069742;28;20200;-69
2022/06/10 06:08:11;;;;;;;66.10;31.10;;;16.20;99.90;;;;;;5068663;28;20228;-69
2022/06/10 06:10:58;;;;;;;62.10;30.80;;;16.20;99.90;;;;;;5068724;28;20907;-69
2022/06/10 06:13:45;;;;;;;65.77;31.40;;;16.10;99.90;;;;;;5071231;28;20214;-69
2022/06/10 06:16:32;;;;;;;64.57;30.77;;;16.20;99.90;;;;;;5066798;28;20206;-69
2022/06/10 06:19:21;;;;;;;72.00;34.37;;;16.10;99.90;;;;;;5067359;28;20205;-69
2022/06/10 06:22:08;;;;;;;71.57;33.53;;;16.20;99.90;;;;;;5069545;28;20235;-69
2022/06/10 06:24:55;;;;;;;81.67;38.90;;;16.20;99.90;;;;;;5073490;28;20198;-69
2022/06/10 06:27:43;;;;;;;66.57;30.70;;;16.10;99.90;;;;;;5070040;28;20213;-69
2022/06/10 06:30:32;;;;;;;80.73;36.90;;;16.10;99.90;;;;;;5070303;28;20207;-69
2022/06/10 06:33:19;;;;;;;82.70;37.23;;;16.20;99.90;;;;;;5067219;28;20193;-69
2022/06/10 06:36:09;;;;;;;76.23;35.27;;;16.30;99.90;;;;;;5061850;28;21835;-69
2022/06/10 06:38:57;;;;;;;76.33;33.73;;;16.20;99.90;;;;;;5068100;28;20292;-69
2022/06/10 06:41:44;;;;;;;78.97;36.53;;;16.30;99.90;;;;;;5068123;28;20232;-69
2022/06/10 06:44:31;;;;;;;78.43;36.53;;;16.30;99.90;;;;;;5067802;28;20997;-69
2022/06/10 06:47:18;;;;;;;76.60;36.63;;;16.20;99.90;;;;;;5061904;28;20200;-69
2022/06/10 06:50:06;;;;;;;90.57;39.17;;;16.30;99.90;;;;;;5064159;28;20603;-69
2022/06/10 06:52:55;;;;;;;89.07;38.50;;;16.30;99.90;;;;;;5067160;28;20206;-69
2022/06/10 06:55:42;;;;;;;83.40;39.63;;;16.40;99.90;;;;;;5066986;28;20248;-69
2022/06/10 06:58:29;;;;;;;85.93;38.83;;;16.40;99.90;;;;;;5066315;28;20223;-69
2022/06/10 07:01:16;;;;;;;82.93;38.23;;;16.40;99.90;;;;;;5069445;28;20307;-69
2022/06/10 07:04:04;;;;;;;90.97;39.83;;;16.40;99.90;;;;;;5067300;28;20204;-69
2022/06/10 07:06:51;;;;;;;92.67;41.97;;;16.30;99.90;;;;;;5068665;28;20214;-69
2022/06/10 07:09:40;;;;;;;88.10;39.87;;;16.40;99.90;;;;;;5068570;28;20227;-69
2022/06/10 07:12:27;;;;;;;75.67;34.03;;;16.50;99.90;;;;;;5070110;28;20607;-69
2022/06/10 07:15:14;;;;;;;75.80;35.70;;;16.50;99.90;;;;;;5069562;28;20209;-69
2022/06/10 07:18:01;;;;;;;80.67;36.80;;;16.60;99.90;;;;;;5063660;28;20315;-69
2022/06/10 07:20:49;;;;;;;88.73;38.73;;;16.60;99.90;;;;;;5063760;28;20202;-69
2022/06/10 07:23:36;;;;;;;79.23;36.73;;;16.70;99.90;;;;;;5069319;28;20221;-69
2022/06/10 07:26:24;;;;;;;80.90;35.67;;;16.60;99.90;;;;;;5069290;28;20210;-69
2022/06/10 07:29:11;;;;;;;75.67;34.93;;;16.40;99.90;;;;;;5069905;28;20723;-69
2022/06/10 07:31:58;;;;;;;79.20;37.00;;;16.40;99.90;;;;;;5065312;28;20199;-69
2022/06/10 07:34:45;;;;;;;77.47;36.50;;;16.30;99.90;;;;;;5064114;28;20211;-69
2022/06/10 07:37:33;;;;;;;74.30;35.70;;;16.30;99.90;;;;;;5069827;28;20208;-69
2022/06/10 07:43:29;;;;;;;64.63;31.90;;;16.30;99.90;;;;;;5064511;28;20244;-69
2022/06/10 07:46:18;;;;;;;62.97;31.53;;;16.30;99.90;;;;;;5062949;28;20892;-69
2022/06/10 07:49:05;;;;;;;59.03;29.80;;;16.30;99.90;;;;;;5071702;28;20217;-69
2022/06/10 07:51:52;;;;;;;61.67;32.53;;;16.30;99.90;;;;;;5066741;28;20217;-69
2022/06/10 07:54:39;;;;;;;61.13;30.53;;;16.30;99.90;;;;;;5067332;28;20204;-69
2022/06/10 07:57:27;;;;;;;70.40;33.07;;;16.30;99.90;;;;;;5067236;28;20250;-69
2022/06/10 08:00:16;;;;;;;62.43;32.53;;;16.40;99.90;;;;;;5056592;28;20310;-69
2022/06/10 08:03:03;;;;;;;44.97;25.40;;;16.50;99.90;;;;;;5047346;28;20197;-69
2022/06/10 08:05:50;;;;;;;47.23;27.17;;;16.50;99.90;;;;;;5058427;28;20696;-69
2022/06/10 08:08:37;;;;;;;38.83;21.43;;;16.60;99.90;;;;;;5055466;28;20223;-69
2022/06/10 08:11:25;;;;;;;45.20;25.67;;;16.60;99.90;;;;;;5046383;28;20724;-69
2022/06/10 08:14:12;;;;;;;44.60;25.33;;;16.80;99.90;;;;;;5044689;28;20208;-69
2022/06/10 08:17:04;;;;;;;41.33;24.87;;;16.70;99.90;;;;;;5043023;28;20553;-69
2022/06/10 08:19:51;;;;;;;38.40;24.17;;;16.70;99.90;;;;;;5033928;28;20601;-69
2022/06/10 08:22:37;;;;;;;34.67;22.13;;;16.70;99.90;;;;;;5045624;28;20677;-69
2022/06/10 08:25:24;;;;;;;42.13;24.60;;;16.90;99.90;;;;;;5046052;28;20610;-69
2022/06/10 08:28:11;;;;;;;35.93;23.33;;;17.00;99.90;;;;;;5042932;28;20208;-69
2022/06/10 08:30:58;;;;;;;41.67;26.13;;;17.00;99.90;;;;;;5040593;28;20203;-69
2022/06/10 08:33:47;;;;;;;38.37;23.53;;;17.10;99.90;;;;;;5037857;28;20207;-69
2022/06/10 08:36:34;;;;;;;34.23;22.93;;;17.20;99.90;;;;;;5039354;28;20267;-69
2022/06/10 08:39:21;;;;;;;38.30;22.43;;;17.20;99.90;;;;;;5044073;28;20213;-69
2022/06/10 08:42:14;;;;;;;33.07;21.87;;;17.20;99.90;;;;;;5039677;28;20585;-69
2022/06/10 08:45:08;;;;;;;35.03;23.13;;;17.10;99.90;;;;;;5040007;28;20288;-69
2022/06/10 08:48:02;;;;;;;34.73;23.90;;;17.20;99.90;;;;;;5039657;28;20667;-69
2022/06/10 08:51:00;;;;;;;34.23;23.73;;;17.10;99.90;;;;;;5031992;28;20741;-69
2022/06/10 08:53:58;;;;;;;33.03;22.80;;;17.10;99.90;;;;;;5040047;28;20193;-69
2022/06/10 08:56:46;;;;;;;32.83;22.23;;;17.20;99.90;;;;;;5041069;28;20262;-69
2022/06/10 08:59:35;;;;;;;30.57;20.33;;;17.20;99.90;;;;;;5043883;28;20917;-69
2022/06/10 09:02:27;;;;;;;27.67;19.60;;;17.20;99.90;;;;;;5062038;28;20207;-69
2022/06/10 09:05:16;;;;;;;29.30;19.07;;;17.20;99.90;;;;;;5062193;28;20674;-69
2022/06/10 09:08:06;;;;;;;26.23;18.10;;;17.10;99.90;;;;;;5061274;28;20205;-69
2022/06/10 09:10:55;;;;;;;33.20;18.37;;;17.10;99.90;;;;;;5060466;28;20204;-69
2022/06/10 09:13:44;;;;;;;30.93;20.50;;;17.10;99.90;;;;;;5057185;28;20212;-69
2022/06/10 09:16:35;;;;;;;33.20;19.97;;;17.10;99.90;;;;;;5062992;28;20206;-69
2022/06/10 09:19:27;;;;;;;30.60;20.83;;;17.00;99.90;;;;;;5063526;28;20197;-69
2022/06/10 09:22:16;;;;;;;31.53;20.60;;;17.00;99.90;;;;;;5061549;28;20283;-69
2022/06/10 09:25:07;;;;;;;28.47;17.93;;;17.10;99.90;;;;;;5061818;28;20209;-69
2022/06/10 09:27:56;;;;;;;29.67;20.07;;;17.50;99.90;;;;;;5059815;28;20256;-70
2022/06/10 09:30:45;;;;;;;27.90;17.70;;;18.00;99.90;;;;;;5060145;28;20298;-70
2022/06/10 09:33:34;;;;;;;23.20;16.77;;;18.50;99.90;;;;;;5058235;28;20242;-70
2022/06/10 09:36:24;;;;;;;41.23;15.30;;;18.80;99.90;;;;;;5058860;28;20202;-70
2022/06/10 09:40:35;;;;;;;25.40;15.77;;;19.00;99.90;;;;;;5061062;28;20216;-69
2022/06/10 09:42:31;;;;;;;23.47;16.37;;;18.90;99.90;;;;;;5062774;28;20205;-69
2022/06/10 09:45:20;;;;;;;25.07;16.97;;;18.30;99.90;;;;;;5062552;28;20205;-69
2022/06/10 09:48:17;;;;;;;26.57;18.73;;;17.90;99.90;;;;;;5061333;28;20212;-69
2022/06/10 09:51:06;;;;;;;24.77;16.93;;;17.60;99.90;;;;;;5060846;28;20208;-69
2022/06/10 09:54:04;;;;;;;24.20;17.80;;;17.50;99.90;;;;;;5062190;28;20207;-69
2022/06/10 09:57:01;;;;;;;24.87;17.40;;;17.70;99.90;;;;;;5062771;28;20206;-69
2022/06/10 09:59:53;;;;;;;23.57;17.23;;;17.70;99.90;;;;;;5059225;28;20291;-70
2022/06/10 10:02:45;;;;;;;22.03;16.03;;;18.10;99.90;;;;;;5062962;28;20235;-69
2022/06/10 10:05:37;;;;;;;25.00;16.60;;;18.20;99.90;;;;;;5063259;28;20247;-69
2022/06/10 10:08:27;;;;;;;24.20;15.53;;;18.40;99.90;;;;;;5062315;28;20265;-69
2022/06/10 10:11:17;;;;;;;23.93;15.50;;;18.20;99.90;;;;;;5064786;28;20331;-69
2022/06/10 10:14:10;;;;;;;23.17;15.70;;;18.10;99.90;;;;;;5063175;28;20775;-69
2022/06/10 10:17:07;;;;;;;24.07;15.80;;;18.20;99.90;;;;;;5065304;28;20289;-69
2022/06/10 10:19:59;;;;;;;23.10;15.17;;;18.10;99.90;;;;;;5064699;28;20560;-69
2022/06/10 10:22:56;;;;;;;22.03;16.47;;;18.10;99.90;;;;;;5062445;28;20289;-69
2022/06/10 10:25:44;;;;;;;21.73;15.70;;;18.30;99.90;;;;;;5067511;28;20208;-70
2022/06/10 10:28:34;;;;;;;23.97;17.03;;;18.20;99.90;;;;;;5065687;28;20200;-69
2022/06/10 10:31:23;;;;;;;29.90;18.87;;;18.10;99.90;;;;;;5065680;28;20228;-69
2022/06/10 10:34:17;;;;;;;24.90;19.10;;;18.10;99.90;;;;;;5067561;28;20207;-69
2022/06/10 10:37:06;;;;;;;25.20;18.00;;;18.00;99.90;;;;;;5061672;28;20390;-69
2022/06/10 10:39:54;;;;;;;26.97;19.77;;;17.80;99.90;;;;;;5063330;28;20211;-69
2022/06/10 10:42:42;;;;;;;32.20;22.30;;;17.80;99.90;;;;;;5064244;28;21068;-69
2022/06/10 10:45:31;;;;;;;33.90;20.97;;;17.60;99.90;;;;;;5067080;28;20207;-69
2022/06/10 10:48:20;;;;;;;32.67;19.37;;;17.60;99.90;;;;;;5063042;28;20208;-69
2022/06/10 10:51:19;;;;;;;32.47;19.33;;;17.50;99.90;;;;;;5061505;28;20373;-69
2022/06/10 10:54:12;;;;;;;27.80;18.00;;;17.90;99.90;;;;;;5062407;28;20209;-69
2022/06/10 10:56:59;;;;;;;29.23;17.13;;;18.10;99.90;;;;;;5061161;28;21066;-69
2022/06/10 10:59:46;;;;;;;29.33;18.83;;;18.00;99.90;;;;;;5069658;28;20700;-69
2022/06/10 11:02:36;;;;;;;26.60;18.50;;;17.80;99.90;;;;;;5068876;28;20674;-69
2022/06/10 11:05:26;;;;;;;28.10;18.10;;;17.80;99.90;;;;;;5066767;28;20294;-69
2022/06/10 11:08:23;;;;;;;25.17;17.07;;;17.70;99.90;;;;;;5080541;28;20238;-69
2022/06/10 11:11:17;;;;;;;27.93;17.30;;;17.80;99.90;;;;;;5071281;28;20749;-69
2022/06/10 11:14:06;;;;;;;28.57;16.40;;;17.70;99.90;;;;;;5059754;28;20952;-69
2022/06/10 11:17:15;;;;;;;21.93;14.57;;;17.70;99.90;;;;;;5065410;28;20220;-69
2022/06/10 11:20:02;;;;;;;24.37;14.47;;;17.90;99.90;;;;;;5063526;28;20219;-69
2022/06/10 11:22:50;;;;;;;20.90;14.80;;;17.90;99.90;;;;;;5064964;28;20341;-69
2022/06/10 11:25:39;;;;;;;23.20;13.83;;;18.10;99.90;;;;;;5056774;28;20199;-69
2022/06/10 11:28:26;;;;;;;21.67;14.23;;;18.10;99.90;;;;;;5070969;28;20217;-69
2022/06/10 11:31:19;;;;;;;19.50;13.77;;;18.20;99.90;;;;;;5078858;28;20309;-69
2022/06/10 11:34:10;;;;;;;19.00;13.60;;;18.50;99.90;;;;;;5066097;28;20208;-69
2022/06/10 11:36:57;;;;;;;19.93;13.57;;;18.20;99.90;;;;;;5066667;28;20283;-69
2022/06/10 11:39:48;;;;;;;20.47;13.30;;;18.20;99.90;;;;;;5061546;28;20246;-69
2022/06/10 11:42:39;;;;;;;19.77;13.13;;;17.90;99.90;;;;;;5067089;28;20196;-69
2022/06/10 11:45:28;;;;;;;20.30;13.70;;;17.90;99.90;;;;;;5063349;28;20565;-68
2022/06/10 11:48:17;;;;;;;17.77;12.90;;;17.80;99.90;;;;;;5063083;28;20230;-69
2022/06/10 11:51:07;;;;;;;19.33;14.40;;;17.80;99.90;;;;;;5059527;28;20229;-69
2022/06/10 11:53:57;;;;;;;17.73;13.27;;;18.00;99.90;;;;;;5061884;28;20204;-69
2022/06/10 11:59:59;;;;;;;17.00;13.00;;;18.20;99.90;;;;;;5067675;28;20233;-69
2022/06/10 12:02:48;;;;;;;18.53;12.27;;;18.30;99.90;;;;;;5064112;28;20282;-69
2022/06/10 12:05:43;;;;;;;19.50;13.90;;;18.20;99.90;;;;;;5069982;28;20571;-69
2022/06/10 12:08:35;;;;;;;20.23;13.93;;;18.30;99.90;;;;;;5067779;28;20568;-69
2022/06/10 12:11:33;;;;;;;21.90;13.53;;;18.50;99.90;;;;;;5066574;28;20216;-69
2022/06/10 12:14:23;;;;;;;26.03;14.67;;;18.70;99.90;;;;;;5066663;28;20739;-69
2022/06/10 12:17:15;;;;;;;20.53;13.43;;;19.10;99.90;;;;;;5084669;28;20857;-70
2022/06/10 12:20:06;;;;;;;20.27;13.17;;;19.70;99.90;;;;;;5082060;28;20234;-70
2022/06/10 12:22:53;;;;;;;17.57;10.57;;;20.60;99.90;;;;;;5078275;28;20280;-71
2022/06/10 12:25:49;;;;;;;12.90;10.00;;;21.50;99.90;;;;;;5083053;28;20333;-71
2022/06/10 12:28:40;;;;;;;13.80;9.33;;;21.90;99.90;;;;;;5079780;28;20250;-70
2022/06/10 12:31:39;;;;;;;17.33;10.23;;;21.80;99.90;;;;;;5083552;28;20384;-70
2022/06/10 12:34:44;;;;;;;14.70;10.73;;;21.20;99.90;;;;;;5082465;28;20282;-70
2022/06/10 12:37:37;;;;;;;13.90;10.10;;;20.80;99.90;;;;;;5086113;28;20203;-69
2022/06/10 12:40:27;;;;;;;12.97;10.47;;;20.70;99.90;;;;;;5082238;28;20219;-69
2022/06/10 12:43:17;;;;;;;14.23;10.13;;;20.00;99.90;;;;;;5080402;28;20211;-69
2022/06/10 12:46:05;;;;;;;11.27;10.07;;;20.00;99.90;;;;;;5083713;28;20200;-69
2022/06/10 12:48:54;;;;;;;54.17;14.23;;;20.00;99.90;;;;;;5090662;28;20282;-69
2022/06/10 12:51:44;;;;;;;15.70;11.33;;;20.00;99.90;;;;;;5084999;28;20262;-69
2022/06/10 12:54:35;;;;;;;13.40;11.27;;;19.70;99.90;;;;;;5085911;28;20232;-69
2022/06/10 12:57:28;;;;;;;23.80;15.80;;;19.50;99.90;;;;;;5085576;28;20231;-69
2022/06/10 13:00:38;;;;;;;15.37;10.83;;;19.50;99.90;;;;;;5086215;28;20228;-69
2022/06/10 13:03:34;;;;;;;17.50;10.43;;;20.10;99.90;;;;;;5084316;28;20204;-70
2022/06/10 13:06:35;;;;;;;13.07;9.90;;;21.00;99.90;;;;;;5079431;28;20197;-70
2022/06/10 13:09:28;;;;;;;12.27;9.53;;;21.40;99.90;;;;;;5090864;28;20204;-70
2022/06/10 13:12:34;;;;;;;14.23;9.53;;;21.50;99.90;;;;;;5085941;28;20201;-69
2022/06/10 13:15:25;;;;;;;13.73;9.50;;;20.50;99.90;;;;;;5086489;28;20203;-69
2022/06/10 13:18:30;;;;;;;15.27;9.33;;;20.50;99.90;;;;;;5083355;28;20208;-69
2022/06/10 13:21:17;;;;;;;14.33;9.40;;;20.20;99.90;;;;;;5086460;28;20261;-69
2022/06/10 13:24:10;;;;;;;13.87;9.60;;;20.40;99.90;;;;;;5081824;28;20909;-69
2022/06/10 13:27:13;;;;;;;13.13;8.90;;;20.50;99.90;;;;;;5080541;28;20199;-69
2022/06/10 13:30:01;;;;;;;17.63;9.90;;;20.40;99.90;;;;;;5084815;28;20781;-69
2022/06/10 13:32:49;;;;;;;14.57;9.20;;;20.60;99.90;;;;;;5084452;28;20257;-69
2022/06/10 13:35:37;;;;;;;13.87;8.90;;;20.20;99.90;;;;;;5086471;28;20203;-69
2022/06/10 13:38:29;;;;;;;16.83;9.30;;;20.50;99.90;;;;;;5091167;28;21090;-69
2022/06/10 13:44:45;;;;;;;12.57;7.43;;;20.80;99.90;;;;;;5022308;28;20243;-69
2022/06/10 13:47:33;;;;;;;13.90;7.43;;;21.00;99.90;;;;;;5022935;28;20303;-69
2022/06/10 13:50:31;;;;;;;11.17;7.17;;;21.30;99.90;;;;;;5078725;28;20218;-69
2022/06/10 13:53:33;;;;;;;9.40;6.37;;;20.70;99.90;;;;;;5086479;28;20203;-69
2022/06/10 13:56:25;;;;;;;12.43;6.90;;;20.60;99.90;;;;;;5077728;28;20207;-68
2022/06/10 13:59:22;;;;;;;7.17;5.97;;;20.40;99.90;;;;;;5084162;28;20673;-68
2022/06/10 14:02:16;;;;;;;10.87;6.10;;;20.40;99.90;;;;;;5061774;28;20276;-68
2022/06/10 14:05:04;;;;;;;7.47;5.90;;;20.30;99.90;;;;;;5061030;28;20346;-68
2022/06/10 14:07:51;;;;;;;6.13;5.47;;;20.50;99.90;;;;;;5063109;28;20257;-68
2022/06/10 14:10:44;;;;;;;10.13;5.70;;;20.60;99.90;;;;;;5064510;28;20221;-69
2022/06/10 14:13:31;;;;;;;7.37;6.03;;;20.40;99.90;;;;;;5064766;28;20211;-68
2022/06/10 14:16:18;;;;;;;7.53;5.83;;;20.40;99.90;;;;;;5062167;28;20204;-68
2022/06/10 14:19:13;;;;;;;8.73;6.07;;;20.00;99.90;;;;;;5063103;28;20287;-68
2022/06/10 14:22:00;;;;;;;7.83;6.20;;;20.00;99.90;;;;;;5059473;28;20659;-68
2022/06/10 14:25:09;;;;;;;11.77;6.27;;;19.70;99.90;;;;;;5064713;28;20285;-68
2022/06/10 14:28:05;;;;;;;8.30;6.00;;;19.40;99.90;;;;;;5065071;28;20214;-68
2022/06/10 14:30:55;;;;;;;11.37;6.50;;;19.30;99.90;;;;;;5058509;28;20231;-68
2022/06/10 14:33:47;;;;;;;8.93;6.83;;;19.10;99.90;;;;;;5063861;28;20208;-68
2022/06/10 14:36:35;;;;;;;9.43;6.93;;;19.10;99.90;;;;;;5055456;28;20572;-68
2022/06/10 14:39:25;;;;;;;12.93;7.00;;;19.10;99.90;;;;;;5065012;28;20346;-68